createdAt,value
2022-12-04T00:02:16.797Z,34.05
2022-12-04T00:04:46.927Z,32.88
2022-12-04T00:07:17.339Z,35.70
2022-12-04T00:09:48.755Z,35.17
2022-12-04T00:12:19.329Z,35.28
2022-12-04T00:15:23.354Z,36.45
2022-12-04T00:17:39.750Z,36.67
2022-12-04T00:20:10.940Z,35.47
2022-12-04T00:25:13.626Z,31.35
2022-12-04T00:27:44.109Z,36.95
2022-12-04T00:30:15.487Z,35.95
2022-12-04T00:32:46.028Z,37.10
2022-12-04T00:35:15.997Z,38.28
2022-12-04T00:37:46.379Z,36.03
2022-12-04T00:40:18.108Z,41.05
2022-12-04T00:42:48.439Z,42.30
2022-12-04T00:45:18.501Z,37.75
2022-12-04T00:47:48.869Z,44.50
2022-12-04T00:50:18.957Z,40.75
2022-12-04T00:52:49.467Z,50.95
2022-12-04T00:55:21.030Z,47.83
2022-12-04T00:57:55.811Z,42.55
2022-12-04T01:00:28.689Z,42.83
2022-12-04T01:02:59.279Z,44.17
2022-12-04T01:05:29.299Z,41.70
2022-12-04T01:08:00.052Z,40.42
2022-12-04T01:10:31.599Z,39.92
2022-12-04T01:13:02.077Z,40.25
2022-12-04T01:15:32.128Z,39.97
2022-12-04T01:18:02.770Z,37.40
2022-12-04T01:20:32.857Z,37.17
2022-12-04T01:23:03.569Z,36.22
2022-12-04T01:25:35.197Z,36.47
2022-12-04T01:28:05.604Z,38.80
2022-12-04T01:30:35.600Z,37.50
2022-12-04T01:33:06.040Z,39.53
2022-12-04T01:35:36.130Z,38.35
2022-12-04T01:38:06.600Z,35.63
2022-12-04T01:40:38.568Z,33.92
2022-12-04T01:43:13.937Z,37.00
2022-12-04T01:45:45.172Z,35.38
2022-12-04T01:50:52.236Z,34.65
2022-12-04T01:53:23.328Z,36.42
2022-12-04T01:55:55.064Z,37.30
2022-12-04T01:58:32.528Z,35.42
2022-12-04T02:01:08.780Z,33.55
2022-12-04T02:03:40.550Z,33.33
2022-12-04T02:06:10.878Z,36.35
2022-12-04T02:08:41.818Z,35.80
2022-12-04T02:11:21.188Z,34.20
2022-12-04T02:13:58.777Z,33.35
2022-12-04T02:16:38.960Z,36.33
2022-12-04T02:19:27.709Z,33.25
2022-12-04T02:22:00.727Z,33.30
2022-12-04T02:24:50.319Z,33.75
2022-12-04T02:27:36.207Z,33.28
2022-12-04T02:30:10.191Z,33.95
2022-12-04T02:32:45.468Z,33.20
2022-12-04T02:35:22.248Z,34.50
2022-12-04T02:37:58.900Z,33.65
2022-12-04T02:40:33.468Z,34.45
2022-12-04T02:43:10.559Z,34.50
2022-12-04T02:45:46.653Z,36.90
2022-12-04T02:48:20.930Z,34.90
2022-12-04T02:50:55.051Z,34.83
2022-12-04T02:53:28.928Z,34.85
2022-12-04T02:56:04.128Z,32.72
2022-12-04T02:58:36.879Z,35.28
2022-12-04T03:01:24.238Z,34.75
2022-12-04T03:03:59.179Z,34.47
2022-12-04T03:06:33.338Z,33.78
2022-12-04T03:09:09.571Z,33.45
2022-12-04T03:11:47.589Z,36.38
2022-12-04T03:14:22.391Z,36.53
2022-12-04T03:17:01.133Z,35.90
2022-12-04T03:19:36.629Z,34.95
2022-12-04T03:22:12.259Z,33.95
2022-12-04T03:24:46.188Z,33.83
2022-12-04T03:27:23.748Z,35.08
2022-12-04T03:30:00.429Z,36.42
2022-12-04T03:32:37.407Z,34.88
2022-12-04T03:35:15.390Z,34.53
2022-12-04T03:37:52.149Z,34.60
2022-12-04T03:40:25.507Z,35.90
2022-12-04T03:43:02.248Z,38.25
2022-12-04T03:45:41.585Z,33.10
2022-12-04T03:48:23.210Z,35.03
2022-12-04T03:50:59.829Z,36.25
2022-12-04T03:53:35.910Z,32.55
2022-12-04T03:56:12.469Z,36.08
2022-12-04T03:58:47.631Z,35.35
2022-12-04T04:01:20.664Z,32.33
2022-12-04T04:03:57.046Z,35.85
2022-12-04T04:06:33.517Z,31.95
2022-12-04T04:09:11.447Z,36.53
2022-12-04T04:11:48.967Z,32.92
2022-12-04T04:14:41.898Z,33.35
2022-12-04T04:17:38.458Z,33.95
2022-12-04T04:20:34.598Z,33.22
2022-12-04T04:23:24.339Z,31.30
2022-12-04T04:25:57.908Z,31.02
2022-12-04T04:28:33.519Z,30.92
2022-12-04T04:31:17.509Z,32.47
2022-12-04T04:33:58.749Z,33.15
2022-12-04T04:39:18.067Z,33.10
2022-12-04T04:41:56.308Z,32.47
2022-12-04T04:44:35.792Z,31.77
2022-12-04T04:47:12.479Z,30.65
2022-12-04T04:49:43.728Z,34.60
2022-12-04T04:54:46.251Z,29.90
2022-12-04T04:57:26.769Z,35.33
2022-12-04T04:59:57.166Z,30.75
2022-12-04T05:02:28.485Z,34.10
2022-12-04T05:04:58.640Z,32.47
2022-12-04T05:07:30.509Z,32.58
2022-12-04T05:10:00.638Z,30.77
2022-12-04T05:12:30.917Z,30.77
2022-12-04T05:15:00.969Z,35.38
2022-12-04T05:17:31.578Z,31.98
2022-12-04T05:20:00.904Z,33.33
2022-12-04T05:22:35.251Z,31.00
2022-12-04T05:25:07.149Z,29.75
2022-12-04T05:27:37.627Z,31.58
2022-12-04T05:30:08.880Z,33.75
2022-12-04T05:32:39.348Z,33.65
2022-12-04T05:35:11.547Z,32.38
2022-12-04T05:37:43.510Z,30.85
2022-12-04T05:40:14.190Z,33.17
2022-12-04T05:42:44.514Z,30.00
2022-12-04T05:45:14.893Z,31.40
2022-12-04T05:47:46.230Z,34.70
2022-12-04T05:50:16.539Z,31.50
2022-12-04T05:52:48.370Z,32.58
2022-12-04T05:57:48.429Z,30.73
2022-12-04T06:00:19.689Z,29.38
2022-12-04T06:05:20.048Z,29.20
2022-12-04T06:07:51.774Z,32.00
2022-12-04T06:10:21.960Z,32.15
2022-12-04T06:12:57.409Z,34.05
2022-12-04T06:15:27.970Z,31.83
2022-12-04T06:17:58.302Z,31.50
2022-12-04T06:20:28.574Z,30.83
2022-12-04T06:23:00.545Z,28.93
2022-12-04T06:28:01.478Z,29.03
2022-12-04T06:30:31.909Z,30.35
2022-12-04T06:33:02.356Z,32.00
2022-12-04T06:35:32.538Z,31.38
2022-12-04T06:38:04.479Z,30.38
2022-12-04T06:43:04.658Z,28.33
2022-12-04T06:45:34.802Z,30.60
2022-12-04T06:48:05.299Z,31.40
2022-12-04T06:50:35.320Z,32.28
2022-12-04T06:53:08.664Z,32.30
2022-12-04T06:55:38.930Z,34.53
2022-12-04T06:58:09.597Z,31.52
2022-12-04T07:00:39.933Z,32.80
2022-12-04T07:03:10.450Z,29.48
2022-12-04T07:05:40.628Z,31.00
2022-12-04T07:08:12.571Z,29.95
2022-12-04T07:10:43.241Z,27.98
2022-12-04T07:13:13.799Z,32.80
2022-12-04T07:15:44.091Z,31.30
2022-12-04T07:18:14.588Z,30.02
2022-12-04T07:20:44.670Z,29.20
2022-12-04T07:23:16.662Z,31.70
2022-12-04T07:28:16.938Z,28.67
2022-12-04T07:30:46.959Z,27.83
2022-12-04T07:33:17.479Z,30.92
2022-12-04T07:35:47.890Z,28.20
2022-12-04T07:38:19.833Z,31.40
2022-12-04T07:43:20.240Z,30.40
2022-12-04T07:45:50.495Z,29.33
2022-12-04T07:48:21.110Z,30.00
2022-12-04T07:50:51.069Z,31.10
2022-12-04T07:53:22.930Z,31.73
2022-12-04T07:58:24.092Z,30.57
2022-12-04T08:00:54.537Z,31.70
2022-12-04T08:03:26.510Z,30.27
2022-12-04T08:05:56.789Z,29.17
2022-12-04T08:08:28.988Z,32.60
2022-12-04T08:10:59.762Z,30.52
2022-12-04T08:13:30.400Z,28.90
2022-12-04T08:16:05.620Z,32.13
2022-12-04T08:18:36.158Z,30.17
2022-12-04T08:21:08.805Z,30.65
2022-12-04T08:23:41.264Z,32.70
2022-12-04T08:26:13.689Z,31.23
2022-12-04T08:28:45.370Z,30.38
2022-12-04T08:31:19.412Z,30.60
2022-12-04T08:33:54.122Z,30.33
2022-12-04T08:36:27.894Z,30.10
2022-12-04T08:39:02.465Z,28.85
2022-12-04T08:41:34.143Z,33.47
2022-12-04T08:44:05.242Z,33.13
2022-12-04T08:46:37.344Z,29.38
2022-12-04T08:49:09.932Z,31.67
2022-12-04T08:51:40.934Z,30.40
2022-12-04T08:54:15.247Z,34.97
2022-12-04T08:56:46.150Z,31.23
2022-12-04T08:59:18.779Z,31.58
2022-12-04T09:01:53.166Z,32.35
2022-12-04T09:04:27.490Z,32.15
2022-12-04T09:07:03.831Z,30.23
2022-12-04T09:09:47.883Z,31.45
2022-12-04T09:12:19.883Z,30.33
2022-12-04T09:14:51.762Z,32.53
2022-12-04T09:17:22.303Z,31.65
2022-12-04T09:19:59.251Z,32.78
2022-12-04T09:22:51.365Z,32.78
2022-12-04T09:25:24.003Z,29.27
2022-12-04T09:27:54.681Z,30.45
2022-12-04T09:30:24.941Z,32.10
2022-12-04T09:32:54.960Z,34.58
2022-12-04T09:35:25.247Z,31.27
2022-12-04T09:37:55.232Z,31.88
2022-12-04T09:40:37.188Z,34.15
2022-12-04T09:43:18.523Z,33.22
2022-12-04T09:45:54.030Z,29.93
2022-12-04T09:48:29.543Z,30.48
2022-12-04T09:51:02.108Z,30.17
2022-12-04T09:53:42.413Z,30.80
2022-12-04T09:56:16.783Z,33.03
2022-12-04T09:58:52.261Z,35.30
2022-12-04T10:01:26.194Z,32.83
2022-12-04T10:04:04.228Z,33.88
2022-12-04T10:06:46.273Z,30.67
2022-12-04T10:09:22.159Z,28.92
2022-12-04T10:12:00.179Z,32.25
2022-12-04T10:14:51.361Z,30.73
2022-12-04T10:17:43.666Z,29.55
2022-12-04T10:20:28.332Z,31.52
2022-12-04T10:23:13.757Z,33.63
2022-12-04T10:25:45.231Z,29.70
2022-12-04T10:28:25.001Z,31.05
2022-12-04T10:30:57.147Z,32.35
2022-12-04T10:33:37.164Z,31.13
2022-12-04T10:36:08.801Z,32.13
2022-12-04T10:38:45.781Z,32.70
2022-12-04T10:41:23.741Z,33.50
2022-12-04T10:43:55.728Z,27.40
2022-12-04T10:46:32.839Z,32.70
2022-12-04T10:49:14.221Z,30.80
2022-12-04T10:51:45.871Z,32.13
2022-12-04T10:54:23.051Z,29.35
2022-12-04T10:56:55.660Z,30.23
2022-12-04T10:59:29.020Z,28.67
2022-12-04T11:02:07.284Z,32.33
2022-12-04T11:04:38.481Z,27.20
2022-12-04T11:07:17.768Z,28.80
2022-12-04T11:09:58.446Z,29.65
2022-12-04T11:12:29.052Z,27.93
2022-12-04T11:15:14.244Z,26.73
2022-12-04T11:17:44.691Z,26.40
2022-12-04T11:20:22.870Z,30.17
2022-12-04T11:22:55.381Z,30.15
2022-12-04T11:25:28.261Z,27.50
2022-12-04T11:28:01.472Z,25.30
2022-12-04T11:30:39.301Z,28.55
2022-12-04T11:33:22.864Z,26.17
2022-12-04T11:35:59.503Z,23.75
2022-12-04T11:38:33.301Z,27.52
2022-12-04T11:41:06.841Z,27.67
2022-12-04T11:43:38.549Z,26.48
2022-12-04T11:46:23.856Z,28.00
2022-12-04T11:48:54.411Z,27.45
2022-12-04T11:51:32.289Z,28.42
2022-12-04T11:54:19.400Z,28.88
2022-12-04T11:56:59.823Z,25.02
2022-12-04T12:00:04.514Z,27.92
2022-12-04T12:03:07.254Z,28.52
2022-12-04T12:06:13.331Z,28.50
2022-12-04T12:09:13.177Z,32.65
2022-12-04T12:11:51.742Z,30.45
2022-12-04T12:14:30.612Z,31.08
2022-12-04T12:17:12.371Z,30.55
2022-12-04T12:20:12.565Z,30.30
2022-12-04T12:23:01.799Z,27.33
2022-12-04T12:25:41.312Z,28.60
2022-12-04T12:28:36.467Z,27.35
2022-12-04T12:31:30.836Z,28.80
2022-12-04T12:34:07.922Z,31.10
2022-12-04T12:36:47.062Z,26.98
2022-12-04T12:39:23.260Z,30.08
2022-12-04T12:41:57.193Z,27.67
2022-12-04T12:44:36.235Z,27.70
2022-12-04T12:47:12.782Z,24.13
2022-12-04T12:49:50.221Z,28.17
2022-12-04T12:52:29.853Z,25.23
2022-12-04T12:55:04.572Z,27.70
2022-12-04T12:57:38.830Z,25.60
2022-12-04T13:00:17.332Z,24.70
2022-12-04T13:02:53.295Z,24.63
2022-12-04T13:05:27.806Z,25.15
2022-12-04T13:08:12.579Z,27.23
2022-12-04T13:10:47.581Z,25.80
2022-12-04T13:13:27.052Z,27.08
2022-12-04T13:16:01.993Z,27.90
2022-12-04T13:18:43.873Z,28.08
2022-12-04T13:21:34.484Z,26.98
2022-12-04T13:24:43.711Z,27.92
2022-12-04T13:27:24.630Z,28.40
2022-12-04T13:30:06.810Z,27.13
2022-12-04T13:33:03.861Z,25.52
2022-12-04T13:36:00.571Z,26.70
2022-12-04T13:38:37.891Z,28.38
2022-12-04T13:41:12.759Z,27.63
2022-12-04T13:43:50.281Z,31.17
2022-12-04T13:46:34.610Z,27.40
2022-12-04T13:49:25.454Z,31.65
2022-12-04T13:51:57.518Z,35.00
2022-12-04T13:54:30.780Z,30.90
2022-12-04T13:57:23.101Z,27.30
2022-12-04T14:00:06.643Z,27.33
2022-12-04T14:02:52.278Z,28.55
2022-12-04T14:05:29.691Z,26.25
2022-12-04T14:08:08.671Z,28.55
2022-12-04T14:10:40.575Z,29.80
2022-12-04T14:13:21.671Z,29.65
2022-12-04T14:16:04.340Z,28.30
2022-12-04T14:18:36.553Z,26.95
2022-12-04T14:21:09.261Z,31.55
2022-12-04T14:23:42.112Z,30.35
2022-12-04T14:26:48.826Z,28.23
2022-12-04T14:29:46.440Z,27.98
2022-12-04T14:32:25.190Z,30.58
2022-12-04T14:34:56.881Z,32.45
2022-12-04T14:40:07.862Z,26.25
2022-12-04T14:42:41.063Z,28.65
2022-12-04T14:45:27.325Z,25.85
2022-12-04T14:48:25.613Z,28.63
2022-12-04T14:51:07.842Z,29.30
2022-12-04T14:53:44.532Z,30.98
2022-12-04T14:56:43.001Z,31.10
2022-12-04T14:59:20.543Z,30.00
2022-12-04T15:01:55.402Z,31.67
2022-12-04T15:04:29.673Z,31.42
2022-12-04T15:07:01.621Z,31.08
2022-12-04T15:12:37.421Z,31.73
2022-12-04T15:15:22.225Z,29.77
2022-12-04T15:18:02.756Z,32.67
2022-12-04T15:20:39.410Z,31.45
2022-12-04T15:23:15.331Z,31.70
2022-12-04T15:25:48.752Z,31.33
2022-12-04T15:28:22.536Z,31.83
2022-12-04T15:30:54.478Z,29.98
2022-12-04T15:33:30.329Z,34.42
2022-12-04T15:36:05.801Z,31.63
2022-12-04T15:38:37.929Z,29.98
2022-12-04T15:41:09.770Z,34.63
2022-12-04T15:46:15.951Z,31.75
2022-12-04T15:48:48.257Z,33.60
2022-12-04T15:51:21.950Z,30.92
2022-12-04T15:53:52.462Z,30.48
2022-12-04T15:56:25.767Z,34.75
2022-12-04T15:59:01.734Z,31.52
2022-12-04T16:01:46.046Z,38.22
2022-12-04T16:04:29.953Z,31.77
2022-12-04T16:07:00.151Z,30.73
2022-12-04T16:09:31.939Z,29.05
2022-12-04T16:12:04.651Z,28.42
2022-12-04T16:14:35.081Z,28.23
2022-12-04T16:17:06.580Z,30.88
2022-12-04T16:19:44.694Z,28.33
2022-12-04T16:22:20.647Z,33.22
2022-12-04T16:24:52.674Z,30.77
2022-12-04T16:27:24.485Z,32.08
2022-12-04T16:29:55.432Z,28.35
2022-12-04T16:32:30.822Z,29.33
2022-12-04T16:35:03.331Z,30.80
2022-12-04T16:37:33.972Z,30.48
2022-12-04T16:40:07.732Z,26.15
2022-12-04T16:42:39.692Z,31.50
2022-12-04T16:45:24.459Z,32.53
2022-12-04T16:47:58.360Z,33.60
2022-12-04T16:50:32.815Z,32.45
2022-12-04T16:53:02.958Z,28.75
2022-12-04T16:55:37.129Z,27.30
2022-12-04T16:58:08.554Z,29.55
2022-12-04T17:00:39.695Z,30.55
2022-12-04T17:03:11.264Z,28.98
2022-12-04T17:05:43.673Z,27.15
2022-12-04T17:08:14.251Z,31.20
2022-12-04T17:10:47.063Z,30.48
2022-12-04T17:13:19.684Z,29.23
2022-12-04T17:15:50.615Z,30.48
2022-12-04T17:18:21.483Z,31.50
2022-12-04T17:20:54.152Z,30.70
2022-12-04T17:23:24.273Z,28.67
2022-12-04T17:25:55.374Z,29.25
2022-12-04T17:28:25.757Z,33.60
2022-12-04T17:30:56.598Z,32.35
2022-12-04T17:33:27.433Z,29.85
2022-12-04T17:36:00.539Z,29.13
2022-12-04T17:38:30.765Z,30.10
2022-12-04T17:41:02.348Z,27.30
2022-12-04T17:43:33.283Z,29.00
2022-12-04T17:46:11.755Z,26.80
2022-12-04T17:48:42.404Z,27.48
2022-12-04T17:51:16.649Z,28.02
2022-12-04T17:53:47.266Z,29.42
2022-12-04T17:56:19.895Z,27.35
2022-12-04T17:58:50.564Z,28.40
2022-12-04T18:01:24.645Z,31.15
2022-12-04T18:03:57.434Z,29.75
2022-12-04T18:06:32.132Z,29.48
2022-12-04T18:09:03.514Z,30.63
2022-12-04T18:11:35.398Z,29.90
2022-12-04T18:14:12.001Z,29.92
2022-12-04T18:16:45.050Z,29.48
2022-12-04T18:19:15.956Z,28.38
2022-12-04T18:21:48.727Z,28.45
2022-12-04T18:24:19.875Z,31.15
2022-12-04T18:26:51.934Z,28.02
2022-12-04T18:31:58.353Z,26.83
2022-12-04T18:34:31.113Z,26.55
2022-12-04T18:37:04.353Z,29.25
2022-12-04T18:39:35.693Z,27.92
2022-12-04T18:42:06.562Z,27.77
2022-12-04T18:44:37.473Z,24.50
2022-12-04T18:47:08.275Z,24.95
2022-12-04T18:49:41.553Z,27.42
2022-12-04T18:52:15.977Z,24.67
2022-12-04T18:54:46.987Z,23.77
2022-12-04T18:57:17.434Z,26.77
2022-12-04T18:59:51.598Z,25.00
2022-12-04T19:02:22.769Z,26.83
2022-12-04T19:04:58.640Z,23.95
2022-12-04T19:07:35.099Z,21.67
2022-12-04T19:10:12.672Z,23.05
2022-12-04T19:12:43.857Z,24.17
2022-12-04T19:15:14.555Z,24.50
2022-12-04T19:17:45.053Z,22.92
2022-12-04T19:20:17.346Z,21.95
2022-12-04T19:22:49.823Z,25.13
2022-12-04T19:25:20.506Z,22.33
2022-12-04T19:27:51.633Z,23.25
2022-12-04T19:30:24.281Z,23.47
2022-12-04T19:32:56.844Z,23.85
2022-12-04T19:35:29.115Z,24.23
2022-12-04T19:38:04.516Z,23.25
2022-12-04T19:40:35.584Z,26.05
2022-12-04T19:43:06.134Z,23.80
2022-12-04T19:45:37.725Z,23.88
2022-12-04T19:48:08.773Z,23.88
2022-12-04T19:50:38.784Z,24.05
2022-12-04T19:53:10.756Z,26.00
2022-12-04T19:55:41.138Z,23.83
2022-12-04T19:58:11.763Z,25.48
2022-12-04T20:00:42.123Z,24.17
2022-12-04T20:03:12.670Z,26.70
2022-12-04T20:05:42.705Z,24.10
2022-12-04T20:08:14.667Z,26.45
2022-12-04T20:10:44.940Z,28.08
2022-12-04T20:13:15.928Z,26.97
2022-12-04T20:15:46.229Z,24.15
2022-12-04T20:18:17.176Z,24.70
2022-12-04T20:20:55.604Z,28.63
2022-12-04T20:23:28.164Z,26.40
2022-12-04T20:25:58.975Z,24.52
2022-12-04T20:28:29.623Z,21.08
2022-12-04T20:30:59.761Z,22.65
2022-12-04T20:33:30.295Z,23.85
2022-12-04T20:36:02.953Z,23.17
2022-12-04T20:38:34.905Z,22.60
2022-12-04T20:43:35.474Z,24.33
2022-12-04T20:46:16.136Z,25.25
2022-12-04T20:48:49.141Z,23.83
2022-12-04T20:51:20.122Z,23.77
2022-12-04T20:53:52.726Z,24.17
2022-12-04T20:56:23.604Z,23.73
2022-12-04T20:58:58.292Z,22.58
2022-12-04T21:01:32.279Z,23.17
2022-12-04T21:04:04.460Z,24.98
2022-12-04T21:06:37.410Z,22.38
2022-12-04T21:09:12.439Z,21.20
2022-12-04T21:11:45.550Z,20.02
2022-12-04T21:14:36.450Z,23.35
2022-12-04T21:17:11.473Z,21.88
2022-12-04T21:19:45.065Z,21.45
2022-12-04T21:22:21.551Z,21.98
2022-12-04T21:24:57.301Z,18.42
2022-12-04T21:27:28.519Z,18.65
2022-12-04T21:30:00.088Z,18.80
2022-12-04T21:32:30.211Z,17.02
2022-12-04T21:35:01.935Z,16.42
2022-12-04T21:37:32.064Z,17.80
2022-12-04T21:40:04.172Z,19.85
2022-12-04T21:42:35.223Z,20.05
2022-12-04T21:45:08.200Z,18.17
2022-12-04T21:47:38.810Z,20.50
2022-12-04T21:50:10.308Z,18.10
2022-12-04T21:52:40.508Z,23.05
2022-12-04T21:55:12.519Z,23.08
2022-12-04T21:57:42.566Z,18.90
2022-12-04T22:00:14.644Z,18.63
2022-12-04T22:02:49.175Z,18.63
2022-12-04T22:05:20.182Z,19.90
2022-12-04T22:07:50.314Z,16.67
2022-12-04T22:10:24.405Z,19.77
2022-12-04T22:15:24.948Z,18.27
2022-12-04T22:17:55.528Z,19.23
2022-12-04T22:20:26.129Z,20.30
2022-12-04T22:22:56.589Z,19.20
2022-12-04T22:25:30.068Z,18.07
2022-12-04T22:28:01.009Z,20.63
2022-12-04T22:33:02.793Z,16.50
2022-12-04T22:38:04.359Z,16.83
2022-12-04T22:40:36.532Z,19.08
2022-12-04T22:43:06.723Z,16.30
2022-12-04T22:45:37.521Z,18.48
2022-12-04T22:48:08.082Z,17.63
2022-12-04T22:50:38.452Z,18.10
2022-12-04T22:53:09.520Z,17.67
2022-12-04T22:58:12.298Z,17.23
2022-12-04T23:00:43.462Z,17.80
2022-12-04T23:03:13.539Z,19.10
2022-12-04T23:05:43.911Z,15.65
2022-12-04T23:08:14.171Z,18.25
2022-12-04T23:10:46.187Z,15.37
2022-12-04T23:15:46.483Z,16.40
2022-12-04T23:18:16.953Z,14.93
2022-12-04T23:20:47.335Z,16.02
2022-12-04T23:23:17.512Z,15.52
2022-12-04T23:25:49.311Z,19.80
2022-12-04T23:28:19.464Z,16.08
2022-12-04T23:30:50.045Z,17.45
2022-12-04T23:33:20.461Z,18.45
2022-12-04T23:35:54.279Z,15.73
2022-12-04T23:38:26.156Z,18.10
2022-12-04T23:41:04.461Z,17.65
2022-12-04T23:43:34.872Z,18.15
2022-12-04T23:46:10.603Z,17.15
2022-12-04T23:48:42.569Z,17.30
2022-12-04T23:53:43.418Z,16.08
2022-12-04T23:56:17.365Z,16.73
2022-12-04T23:58:49.247Z,17.80
